createdAt,value
2019-05-30T00:01:24.822Z,13.30
2019-05-30T00:04:26.396Z,13.30
2019-05-30T00:07:28.007Z,13.30
2019-05-30T00:10:29.557Z,13.20
2019-05-30T00:13:31.099Z,13.10
2019-05-30T00:16:34.291Z,13.10
2019-05-30T00:19:35.830Z,13.10
2019-05-30T00:22:37.429Z,13.00
2019-05-30T00:25:39.016Z,13.00
2019-05-30T00:28:40.652Z,12.90
2019-05-30T00:31:42.356Z,12.90
2019-05-30T00:34:44.016Z,12.90
2019-05-30T00:37:45.669Z,12.80
2019-05-30T00:40:47.273Z,12.80
2019-05-30T00:43:48.848Z,12.70
2019-05-30T00:46:50.412Z,12.70
2019-05-30T00:49:52.023Z,12.60
2019-05-30T00:52:53.602Z,12.70
2019-05-30T00:55:56.601Z,12.60
2019-05-30T00:59:00.584Z,12.60
2019-05-30T01:02:02.783Z,12.60
2019-05-30T01:05:05.173Z,12.60
2019-05-30T01:08:07.196Z,12.60
2019-05-30T01:11:08.951Z,12.70
2019-05-30T01:14:10.523Z,12.60
2019-05-30T01:17:12.089Z,12.60
2019-05-30T01:20:14.306Z,12.50
2019-05-30T01:23:15.796Z,12.60
2019-05-30T01:26:17.369Z,12.60
2019-05-30T01:29:19.954Z,12.50
2019-05-30T01:32:30.585Z,12.40
2019-05-30T01:35:32.620Z,12.40
2019-05-30T01:38:34.138Z,12.40
2019-05-30T01:41:35.667Z,12.30
2019-05-30T01:44:37.233Z,12.30
2019-05-30T01:47:38.836Z,12.30
2019-05-30T01:50:40.336Z,12.30
2019-05-30T01:53:41.831Z,12.30
2019-05-30T01:56:44.294Z,12.30
2019-05-30T01:59:45.862Z,12.30
2019-05-30T02:02:47.378Z,12.30
2019-05-30T02:05:48.908Z,12.30
2019-05-30T02:08:50.463Z,12.30
2019-05-30T02:11:51.983Z,12.30
2019-05-30T02:14:53.550Z,12.20
2019-05-30T02:17:55.087Z,12.20
2019-05-30T02:20:56.620Z,12.10
2019-05-30T02:23:58.165Z,12.10
2019-05-30T02:27:00.067Z,12.00
2019-05-30T02:30:04.006Z,12.00
2019-05-30T02:33:07.447Z,12.00
2019-05-30T02:36:10.987Z,11.90
2019-05-30T02:39:12.475Z,11.90
2019-05-30T02:42:14.023Z,11.80
2019-05-30T02:45:17.646Z,11.80
2019-05-30T02:48:19.137Z,11.70
2019-05-30T02:51:20.650Z,11.70
2019-05-30T02:54:22.159Z,11.70
2019-05-30T02:57:23.676Z,11.70
2019-05-30T03:00:34.674Z,11.70
2019-05-30T03:03:36.231Z,11.70
2019-05-30T03:06:37.806Z,11.60
2019-05-30T03:09:39.583Z,11.60
2019-05-30T03:12:41.224Z,11.50
2019-05-30T03:15:42.787Z,11.50
2019-05-30T03:18:44.274Z,11.50
2019-05-30T03:21:45.772Z,11.40
2019-05-30T03:24:47.361Z,11.40
2019-05-30T03:27:48.849Z,11.40
2019-05-30T03:30:50.324Z,11.40
2019-05-30T03:33:51.789Z,11.30
2019-05-30T03:36:53.360Z,11.40
2019-05-30T03:39:54.909Z,11.40
2019-05-30T03:42:56.469Z,11.30
2019-05-30T03:45:58.603Z,11.30
2019-05-30T03:49:04.331Z,11.30
2019-05-30T03:52:10.619Z,11.30
2019-05-30T03:55:14.442Z,11.30
2019-05-30T03:58:49.283Z,11.30
2019-05-30T04:02:11.067Z,11.30
2019-05-30T04:05:19.310Z,11.30
2019-05-30T04:08:22.921Z,11.30
2019-05-30T04:11:34.276Z,11.30
2019-05-30T04:14:40.513Z,11.30
2019-05-30T04:17:42.066Z,11.30
2019-05-30T04:20:43.558Z,11.20
2019-05-30T04:23:45.038Z,11.20
2019-05-30T04:26:46.510Z,11.20
2019-05-30T04:29:48.022Z,11.20
2019-05-30T04:32:49.547Z,11.20
2019-05-30T04:35:51.041Z,11.20
2019-05-30T04:38:52.546Z,11.20
2019-05-30T04:41:54.005Z,11.30
2019-05-30T04:44:55.498Z,11.30
2019-05-30T04:47:56.987Z,11.30
2019-05-30T04:50:58.471Z,11.30
2019-05-30T04:53:59.922Z,11.30
2019-05-30T04:57:01.382Z,11.40
2019-05-30T05:00:02.971Z,11.40
2019-05-30T05:03:05.489Z,11.40
2019-05-30T05:06:08.081Z,11.40
2019-05-30T05:09:09.619Z,11.40
2019-05-30T05:12:12.029Z,11.50
2019-05-30T05:15:14.299Z,11.50
2019-05-30T05:18:16.969Z,11.60
2019-05-30T05:21:18.870Z,11.70
2019-05-30T05:24:21.470Z,11.70
2019-05-30T05:27:23.995Z,11.80
2019-05-30T05:30:25.719Z,11.80
2019-05-30T05:33:27.219Z,11.80
2019-05-30T05:36:28.750Z,11.80
2019-05-30T05:39:30.298Z,11.90
2019-05-30T05:42:31.803Z,11.90
2019-05-30T05:45:33.343Z,12.00
2019-05-30T05:48:34.856Z,12.00
2019-05-30T05:51:36.362Z,12.10
2019-05-30T05:54:37.883Z,12.20
2019-05-30T05:57:39.414Z,12.20
2019-05-30T06:00:40.923Z,12.30
2019-05-30T06:03:42.434Z,12.40
2019-05-30T06:06:43.983Z,12.50
2019-05-30T06:09:45.533Z,12.60
2019-05-30T06:12:47.085Z,12.70
2019-05-30T06:15:48.986Z,12.80
2019-05-30T06:18:50.496Z,12.90
2019-05-30T06:21:54.304Z,13.00
2019-05-30T06:24:55.312Z,13.00
2019-05-30T06:27:56.847Z,13.20
2019-05-30T06:30:59.207Z,13.20
2019-05-30T06:34:00.906Z,13.30
2019-05-30T06:37:02.504Z,13.30
2019-05-30T06:40:04.490Z,13.40
2019-05-30T06:43:06.223Z,13.40
2019-05-30T06:46:07.757Z,13.50
2019-05-30T06:49:09.239Z,13.60
2019-05-30T06:52:10.728Z,13.60
2019-05-30T06:55:12.218Z,13.70
2019-05-30T06:58:13.745Z,13.70
2019-05-30T07:01:15.240Z,13.90
2019-05-30T07:04:17.229Z,14.00
2019-05-30T07:07:19.504Z,14.00
2019-05-30T07:10:22.616Z,14.20
2019-05-30T07:13:25.247Z,14.30
2019-05-30T07:16:27.367Z,14.50
2019-05-30T07:19:29.572Z,14.70
2019-05-30T07:22:31.882Z,14.80
2019-05-30T07:25:34.099Z,15.00
2019-05-30T07:28:35.890Z,15.10
2019-05-30T07:31:37.523Z,15.20
2019-05-30T07:34:39.015Z,15.30
2019-05-30T07:37:40.537Z,15.50
2019-05-30T07:40:42.045Z,15.60
2019-05-30T07:43:43.656Z,15.70
2019-05-30T07:46:45.202Z,15.90
2019-05-30T07:49:46.696Z,16.00
2019-05-30T07:52:48.225Z,16.10
2019-05-30T07:55:49.730Z,16.30
2019-05-30T07:58:51.233Z,16.40
2019-05-30T08:01:52.771Z,16.60
2019-05-30T08:04:54.277Z,16.60
2019-05-30T08:07:55.852Z,16.60
2019-05-30T08:11:09.016Z,16.70
2019-05-30T08:14:00.577Z,16.90
2019-05-30T08:17:02.093Z,16.90
2019-05-30T08:20:03.710Z,17.10
2019-05-30T08:23:05.218Z,17.30
2019-05-30T08:26:06.838Z,17.40
2019-05-30T08:29:08.471Z,17.60
2019-05-30T08:32:09.965Z,17.60
2019-05-30T08:35:11.564Z,17.70
2019-05-30T08:38:13.164Z,17.80
2019-05-30T08:41:14.691Z,17.90
2019-05-30T08:44:16.268Z,18.10
2019-05-30T08:47:17.774Z,18.30
2019-05-30T08:50:19.298Z,18.50
2019-05-30T08:53:20.783Z,18.60
2019-05-30T08:56:22.299Z,18.70
2019-05-30T08:59:23.793Z,18.90
2019-05-30T09:02:25.422Z,19.20
2019-05-30T09:05:26.958Z,19.20
2019-05-30T09:08:28.442Z,19.20
2019-05-30T09:11:29.991Z,19.10
2019-05-30T09:14:31.492Z,19.30
2019-05-30T09:17:33.004Z,19.50
2019-05-30T09:20:34.497Z,19.50
2019-05-30T09:23:38.364Z,19.50
2019-05-30T09:26:43.780Z,19.70
2019-05-30T09:29:42.855Z,19.80
2019-05-30T09:32:45.279Z,20.00
2019-05-30T09:35:47.090Z,20.10
2019-05-30T09:38:49.755Z,20.20
2019-05-30T09:41:51.454Z,20.30
2019-05-30T09:44:52.955Z,20.40
2019-05-30T09:47:54.511Z,20.50
2019-05-30T09:50:56.009Z,20.50
2019-05-30T09:53:57.515Z,20.40
2019-05-30T09:56:59.023Z,20.50
2019-05-30T10:00:00.538Z,20.60
2019-05-30T10:03:02.351Z,20.80
2019-05-30T10:06:04.147Z,20.80
2019-05-30T10:09:08.853Z,20.70
2019-05-30T10:12:10.425Z,20.70
2019-05-30T10:15:12.840Z,20.90
2019-05-30T10:18:14.370Z,20.90
2019-05-30T10:21:15.878Z,21.00
2019-05-30T10:24:17.364Z,21.00
2019-05-30T10:27:18.863Z,21.00
2019-05-30T10:30:22.249Z,21.10
2019-05-30T10:33:23.859Z,21.40
2019-05-30T10:36:25.379Z,21.60
2019-05-30T10:39:26.903Z,21.70
2019-05-30T10:42:28.397Z,21.60
2019-05-30T10:45:30.020Z,21.60
2019-05-30T10:48:31.618Z,21.90
2019-05-30T10:51:33.085Z,22.10
2019-05-30T10:54:34.646Z,22.10
2019-05-30T10:57:36.207Z,21.90
2019-05-30T11:00:53.791Z,21.90
2019-05-30T11:03:55.306Z,22.10
2019-05-30T11:07:23.278Z,22.10
2019-05-30T11:10:38.830Z,22.20
2019-05-30T11:13:40.347Z,22.20
2019-05-30T11:16:41.904Z,22.30
2019-05-30T11:19:43.439Z,22.30
2019-05-30T11:22:44.942Z,22.50
2019-05-30T11:25:46.474Z,22.50
2019-05-30T11:28:48.576Z,22.60
2019-05-30T11:31:50.738Z,22.50
2019-05-30T11:34:53.371Z,22.50
2019-05-30T11:37:55.221Z,22.60
2019-05-30T11:40:57.554Z,22.70
2019-05-30T11:43:59.771Z,22.60
2019-05-30T11:47:02.457Z,22.50
2019-05-30T11:50:04.105Z,22.60
2019-05-30T11:53:05.597Z,22.80
2019-05-30T11:56:07.161Z,22.80
2019-05-30T11:59:08.694Z,22.70
2019-05-30T12:02:10.400Z,22.80
2019-05-30T12:05:12.230Z,22.90
2019-05-30T12:08:13.741Z,23.20
2019-05-30T12:11:15.233Z,23.30
2019-05-30T12:14:16.790Z,23.30
2019-05-30T12:17:18.301Z,23.40
2019-05-30T12:20:21.340Z,23.40
2019-05-30T12:23:24.007Z,23.60
2019-05-30T12:26:25.501Z,23.70
2019-05-30T12:29:27.052Z,23.70
2019-05-30T12:32:28.570Z,23.70
2019-05-30T12:35:30.099Z,23.70
2019-05-30T12:38:31.590Z,23.70
2019-05-30T12:41:33.156Z,23.70
2019-05-30T12:44:34.664Z,23.70
2019-05-30T12:47:36.165Z,23.70
2019-05-30T12:50:37.682Z,23.90
2019-05-30T12:53:39.150Z,24.00
2019-05-30T12:56:40.684Z,24.00
2019-05-30T12:59:42.180Z,24.00
2019-05-30T13:02:43.678Z,24.00
2019-05-30T13:05:45.183Z,23.80
2019-05-30T13:08:46.673Z,23.70
2019-05-30T13:11:48.278Z,23.70
2019-05-30T13:14:49.792Z,23.90
2019-05-30T13:17:51.384Z,24.20
2019-05-30T13:20:52.913Z,24.20
2019-05-30T13:23:55.482Z,24.30
2019-05-30T13:26:57.643Z,24.30
2019-05-30T13:29:59.983Z,24.50
2019-05-30T13:33:03.034Z,24.50
2019-05-30T13:36:05.139Z,24.70
2019-05-30T13:39:08.102Z,25.00
2019-05-30T13:42:09.728Z,25.20
2019-05-30T13:45:11.653Z,25.20
2019-05-30T13:48:14.231Z,25.10
2019-05-30T13:51:15.838Z,25.00
2019-05-30T13:54:17.364Z,24.90
2019-05-30T13:57:18.890Z,24.90
2019-05-30T14:00:21.109Z,24.90
2019-05-30T14:03:22.686Z,24.70
2019-05-30T14:06:24.282Z,24.60
2019-05-30T14:09:25.874Z,24.60
2019-05-30T14:12:27.483Z,24.50
2019-05-30T14:15:29.203Z,24.50
2019-05-30T14:18:30.687Z,24.50
2019-05-30T14:21:32.207Z,24.50
2019-05-30T14:24:33.718Z,24.40
2019-05-30T14:27:35.214Z,24.40
2019-05-30T14:30:36.724Z,24.30
2019-05-30T14:33:38.206Z,24.20
2019-05-30T14:36:39.744Z,24.20
2019-05-30T14:39:41.267Z,24.20
2019-05-30T14:42:42.775Z,24.20
2019-05-30T14:45:44.299Z,24.10
2019-05-30T14:48:45.788Z,24.20
2019-05-30T14:51:47.349Z,24.30
2019-05-30T14:54:48.863Z,24.30
2019-05-30T14:57:50.390Z,24.20
2019-05-30T15:00:51.930Z,24.10
2019-05-30T15:03:54.607Z,24.10
2019-05-30T15:06:56.118Z,24.00
2019-05-30T15:09:57.656Z,23.90
2019-05-30T15:12:59.207Z,23.90
2019-05-30T15:16:00.766Z,23.80
2019-05-30T15:19:02.336Z,23.70
2019-05-30T15:22:03.852Z,23.70
2019-05-30T15:25:05.812Z,23.70
2019-05-30T15:28:08.093Z,23.70
2019-05-30T15:31:10.263Z,23.70
2019-05-30T15:34:12.615Z,23.70
2019-05-30T15:37:14.853Z,23.70
2019-05-30T15:40:17.189Z,23.70
2019-05-30T15:43:18.788Z,23.60
2019-05-30T15:46:20.339Z,23.70
2019-05-30T15:49:21.807Z,23.70
2019-05-30T15:52:23.319Z,23.70
2019-05-30T15:55:24.782Z,23.70
2019-05-30T15:58:26.328Z,23.60
2019-05-30T16:01:27.819Z,23.50
2019-05-30T16:04:29.309Z,23.60
2019-05-30T16:07:30.819Z,23.60
2019-05-30T16:10:32.384Z,23.70
2019-05-30T16:13:33.923Z,23.80
2019-05-30T16:16:40.181Z,23.70
2019-05-30T16:19:38.632Z,23.60
2019-05-30T16:22:40.209Z,23.50
2019-05-30T16:25:41.711Z,23.50
2019-05-30T16:28:43.246Z,23.50
2019-05-30T16:31:44.767Z,23.30
2019-05-30T16:34:46.247Z,23.30
2019-05-30T16:37:47.766Z,23.30
2019-05-30T16:40:49.253Z,23.30
2019-05-30T16:43:50.794Z,23.30
2019-05-30T16:46:52.347Z,23.20
2019-05-30T16:49:53.831Z,23.20
2019-05-30T16:52:55.385Z,23.10
2019-05-30T16:55:56.852Z,23.10
2019-05-30T16:58:58.453Z,23.10
2019-05-30T17:02:00.003Z,23.00
2019-05-30T17:05:01.513Z,23.00
2019-05-30T17:08:03.031Z,23.00
2019-05-30T17:11:04.514Z,22.90
2019-05-30T17:14:06.335Z,22.90
2019-05-30T17:17:07.871Z,22.90
2019-05-30T17:20:11.455Z,22.80
2019-05-30T17:23:13.018Z,22.80
2019-05-30T17:26:14.580Z,22.70
2019-05-30T17:29:17.338Z,22.70
2019-05-30T17:32:19.710Z,22.60
2019-05-30T17:35:22.065Z,22.50
2019-05-30T17:38:24.592Z,22.50
2019-05-30T17:41:26.809Z,22.40
2019-05-30T17:44:29.780Z,22.40
2019-05-30T17:47:32.538Z,22.30
2019-05-30T17:50:34.070Z,22.30
2019-05-30T17:53:35.684Z,22.30
2019-05-30T17:56:37.211Z,22.30
2019-05-30T17:59:38.727Z,22.20
2019-05-30T18:02:40.304Z,22.20
2019-05-30T18:05:41.861Z,22.10
2019-05-30T18:08:43.428Z,22.10
2019-05-30T18:11:45.013Z,22.10
2019-05-30T18:14:46.518Z,22.00
2019-05-30T18:17:49.142Z,21.90
2019-05-30T18:20:50.705Z,21.90
2019-05-30T18:23:52.286Z,21.80
2019-05-30T18:26:53.821Z,21.80
2019-05-30T18:29:55.406Z,21.70
2019-05-30T18:32:58.010Z,21.70
2019-05-30T18:35:59.535Z,21.60
2019-05-30T18:39:01.126Z,21.60
2019-05-30T18:42:04.233Z,21.50
2019-05-30T18:45:06.581Z,21.40
2019-05-30T18:48:08.811Z,21.40
2019-05-30T18:51:10.405Z,21.30
2019-05-30T18:54:12.079Z,21.30
2019-05-30T18:57:13.603Z,21.20
2019-05-30T19:00:17.383Z,21.20
2019-05-30T19:03:18.883Z,21.10
2019-05-30T19:06:20.442Z,21.00
2019-05-30T19:09:22.049Z,20.90
2019-05-30T19:12:24.281Z,20.90
2019-05-30T19:15:29.320Z,20.90
2019-05-30T19:18:29.493Z,20.80
2019-05-30T19:21:32.302Z,20.80
2019-05-30T19:24:34.189Z,20.80
2019-05-30T19:27:37.951Z,20.70
2019-05-30T19:30:41.109Z,20.60
2019-05-30T19:33:42.224Z,20.60
2019-05-30T19:36:43.850Z,20.50
2019-05-30T19:39:45.467Z,20.50
2019-05-30T19:42:46.988Z,20.40
2019-05-30T19:45:48.519Z,20.40
2019-05-30T19:48:50.063Z,20.40
2019-05-30T19:51:51.582Z,20.40
2019-05-30T19:54:53.146Z,20.30
2019-05-30T19:57:54.689Z,20.20
2019-05-30T20:00:58.805Z,20.20
2019-05-30T20:03:59.423Z,20.10
2019-05-30T20:07:01.009Z,20.10
2019-05-30T20:10:02.582Z,20.00
2019-05-30T20:13:04.185Z,20.00
2019-05-30T20:16:05.752Z,20.00
2019-05-30T20:19:07.254Z,19.90
2019-05-30T20:22:08.801Z,19.90
2019-05-30T20:25:11.555Z,19.90
2019-05-30T20:28:13.114Z,19.90
2019-05-30T20:31:14.735Z,19.90
2019-05-30T20:34:16.377Z,19.90
2019-05-30T20:37:21.823Z,19.90
2019-05-30T20:40:24.452Z,19.80
2019-05-30T20:43:26.007Z,19.80
2019-05-30T20:46:27.615Z,19.80
2019-05-30T20:49:29.130Z,19.80
2019-05-30T20:52:30.676Z,19.70
2019-05-30T20:55:32.220Z,19.70
2019-05-30T20:58:33.826Z,19.70
2019-05-30T21:01:35.612Z,19.70
2019-05-30T21:04:37.323Z,19.60
2019-05-30T21:07:39.803Z,19.60
2019-05-30T21:10:43.242Z,19.60
2019-05-30T21:13:46.418Z,19.60
2019-05-30T21:16:49.750Z,19.50
2019-05-30T21:19:51.318Z,19.60
2019-05-30T21:22:53.088Z,19.50
2019-05-30T21:25:54.673Z,19.50
2019-05-30T21:28:56.167Z,19.50
2019-05-30T21:31:57.753Z,19.50
2019-05-30T21:34:59.382Z,19.40
2019-05-30T21:38:01.028Z,19.40
2019-05-30T21:41:02.571Z,19.40
2019-05-30T21:44:04.075Z,19.40
2019-05-30T21:47:05.720Z,19.40
2019-05-30T21:50:09.070Z,19.30
2019-05-30T21:53:10.615Z,19.20
2019-05-30T21:56:13.007Z,9.60
2019-05-30T21:59:14.743Z,19.20
2019-05-30T22:02:16.340Z,19.20
2019-05-30T22:05:17.940Z,19.20
2019-05-30T22:08:19.550Z,19.10
2019-05-30T22:11:21.537Z,19.10
2019-05-30T22:14:23.044Z,19.00
2019-05-30T22:17:24.739Z,18.90
2019-05-30T22:20:26.339Z,18.90
2019-05-30T22:23:27.888Z,18.90
2019-05-30T22:26:29.419Z,18.90
2019-05-30T22:29:30.934Z,18.80
2019-05-30T22:32:32.528Z,18.80
2019-05-30T22:35:34.023Z,18.80
2019-05-30T22:38:35.752Z,18.80
2019-05-30T22:41:37.287Z,18.80
2019-05-30T22:44:38.834Z,18.60
2019-05-30T22:47:40.371Z,18.60
2019-05-30T22:50:41.910Z,18.50
2019-05-30T22:53:44.829Z,18.60
2019-05-30T22:56:47.285Z,18.60
2019-05-30T22:59:48.922Z,18.60
2019-05-30T23:02:50.444Z,18.60
2019-05-30T23:05:53.284Z,18.60
2019-05-30T23:08:55.062Z,18.60
2019-05-30T23:11:56.581Z,18.60
2019-05-30T23:14:58.118Z,18.60
2019-05-30T23:17:59.669Z,18.50
2019-05-30T23:21:01.244Z,18.50
2019-05-30T23:24:02.911Z,18.50
2019-05-30T23:27:08.134Z,18.50
2019-05-30T23:30:08.019Z,18.50
2019-05-30T23:33:09.662Z,18.50
2019-05-30T23:36:11.172Z,18.50
2019-05-30T23:39:12.699Z,18.50
2019-05-30T23:42:14.231Z,18.50
2019-05-30T23:45:15.942Z,18.50
2019-05-30T23:48:17.510Z,18.50
2019-05-30T23:51:19.085Z,18.50
2019-05-30T23:54:20.596Z,18.50
2019-05-30T23:57:22.115Z,18.40
